createdAt,value
2022-08-07T00:00:36.505Z,18.12
2022-08-07T00:03:07.267Z,18.13
2022-08-07T00:05:36.281Z,18.17
2022-08-07T00:08:04.763Z,18.16
2022-08-07T00:10:31.811Z,18.19
2022-08-07T00:13:09.842Z,18.07
2022-08-07T00:15:50.941Z,18.00
2022-08-07T00:18:24.565Z,18.04
2022-08-07T00:20:54.080Z,17.98
2022-08-07T00:23:21.179Z,17.97
2022-08-07T00:26:00.362Z,17.89
2022-08-07T00:28:33.734Z,17.80
2022-08-07T00:31:12.240Z,17.71
2022-08-07T00:33:40.555Z,17.72
2022-08-07T00:36:08.389Z,17.54
2022-08-07T00:38:36.777Z,17.47
2022-08-07T00:41:10.087Z,17.43
2022-08-07T00:43:59.754Z,17.36
2022-08-07T00:46:28.003Z,17.27
2022-08-07T00:48:54.459Z,17.18
2022-08-07T00:51:21.581Z,17.16
2022-08-07T00:53:50.888Z,17.18
2022-08-07T00:56:22.664Z,17.13
2022-08-07T00:58:49.717Z,16.95
2022-08-07T01:01:18.197Z,16.95
2022-08-07T01:03:56.552Z,16.86
2022-08-07T01:06:29.126Z,16.83
2022-08-07T01:08:58.352Z,16.70
2022-08-07T01:12:09.982Z,16.64
2022-08-07T01:14:12.700Z,16.55
2022-08-07T01:16:43.100Z,16.50
2022-08-07T01:19:18.046Z,16.45
2022-08-07T01:21:47.271Z,16.40
2022-08-07T01:24:14.622Z,16.36
2022-08-07T01:26:52.300Z,16.35
2022-08-07T01:29:19.947Z,16.29
2022-08-07T01:31:48.569Z,16.26
2022-08-07T01:34:15.594Z,16.22
2022-08-07T01:36:44.265Z,16.16
2022-08-07T01:39:17.953Z,16.15
2022-08-07T01:42:07.719Z,16.11
2022-08-07T01:44:31.494Z,16.07
2022-08-07T01:46:58.819Z,16.01
2022-08-07T01:49:27.673Z,15.97
2022-08-07T01:52:04.942Z,15.99
2022-08-07T01:54:39.574Z,16.00
2022-08-07T01:57:20.771Z,15.93
2022-08-07T02:00:12.988Z,15.87
2022-08-07T02:03:12.204Z,15.81
2022-08-07T02:05:48.566Z,15.85
2022-08-07T02:08:27.921Z,15.82
2022-08-07T02:10:59.189Z,15.78
2022-08-07T02:13:56.851Z,15.75
2022-08-07T02:16:18.153Z,15.69
2022-08-07T02:18:49.340Z,15.68
2022-08-07T02:21:19.691Z,15.66
2022-08-07T02:23:47.677Z,15.65
2022-08-07T02:26:33.943Z,15.64
2022-08-07T02:29:02.998Z,15.66
2022-08-07T02:31:32.665Z,15.65
2022-08-07T02:34:03.028Z,15.65
2022-08-07T02:36:33.011Z,15.57
2022-08-07T02:39:02.611Z,15.57
2022-08-07T02:41:50.648Z,15.55
2022-08-07T02:44:21.427Z,15.50
2022-08-07T02:46:52.663Z,15.48
2022-08-07T02:49:28.683Z,15.48
2022-08-07T02:52:09.921Z,15.44
2022-08-07T02:54:41.647Z,15.43
2022-08-07T02:57:12.764Z,15.45
2022-08-07T02:59:45.571Z,15.45
2022-08-07T03:02:22.659Z,15.44
2022-08-07T03:04:53.221Z,15.37
2022-08-07T03:07:21.498Z,15.33
2022-08-07T03:10:08.902Z,15.30
2022-08-07T03:12:36.642Z,15.29
2022-08-07T03:15:07.847Z,15.30
2022-08-07T03:17:54.093Z,15.28
2022-08-07T03:20:23.127Z,15.26
2022-08-07T03:22:50.999Z,15.27
2022-08-07T03:25:21.086Z,15.21
2022-08-07T03:27:59.144Z,15.20
2022-08-07T03:30:27.175Z,15.16
2022-08-07T03:32:58.243Z,15.18
2022-08-07T03:35:44.087Z,15.17
2022-08-07T03:38:16.322Z,15.21
2022-08-07T03:40:47.781Z,15.18
2022-08-07T03:43:26.480Z,15.17
2022-08-07T03:45:53.668Z,15.11
2022-08-07T03:48:20.552Z,15.08
2022-08-07T03:50:56.177Z,15.13
2022-08-07T03:53:50.167Z,15.05
2022-08-07T03:56:14.527Z,15.02
2022-08-07T03:59:07.869Z,15.01
2022-08-07T04:01:30.120Z,14.95
2022-08-07T04:03:59.498Z,14.91
2022-08-07T04:06:37.722Z,14.88
2022-08-07T04:09:06.024Z,14.89
2022-08-07T04:12:23.874Z,14.89
2022-08-07T04:14:37.576Z,14.89
2022-08-07T04:17:20.009Z,14.94
2022-08-07T04:19:52.481Z,14.88
2022-08-07T04:22:27.374Z,14.87
2022-08-07T04:24:58.095Z,14.84
2022-08-07T04:27:26.463Z,14.83
2022-08-07T04:30:01.390Z,14.85
2022-08-07T04:32:33.901Z,14.85
2022-08-07T04:35:05.340Z,14.86
2022-08-07T04:37:52.726Z,14.82
2022-08-07T04:40:20.624Z,14.83
2022-08-07T04:42:47.076Z,14.84
2022-08-07T04:45:44.378Z,14.82
2022-08-07T04:48:12.445Z,14.86
2022-08-07T04:50:45.247Z,14.80
2022-08-07T04:54:00.937Z,14.79
2022-08-07T04:58:09.811Z,14.80
2022-08-07T05:00:17.383Z,14.84
2022-08-07T05:04:01.144Z,14.78
2022-08-07T05:06:16.403Z,14.83
2022-08-07T05:09:10.539Z,14.94
2022-08-07T05:11:58.899Z,15.02
2022-08-07T05:14:53.264Z,15.01
2022-08-07T05:17:51.928Z,15.11
2022-08-07T05:20:16.765Z,15.08
2022-08-07T05:22:46.908Z,15.21
2022-08-07T05:25:25.650Z,15.19
2022-08-07T05:28:20.254Z,15.21
2022-08-07T05:30:52.411Z,15.36
2022-08-07T05:33:20.803Z,15.37
2022-08-07T05:35:50.814Z,15.49
2022-08-07T05:38:58.112Z,15.50
2022-08-07T05:41:14.523Z,15.55
2022-08-07T05:44:01.271Z,15.66
2022-08-07T05:46:36.102Z,15.82
2022-08-07T05:49:12.059Z,15.93
2022-08-07T05:51:42.296Z,15.94
2022-08-07T05:54:29.854Z,16.06
2022-08-07T05:56:57.734Z,16.09
2022-08-07T05:59:26.279Z,16.17
2022-08-07T06:01:54.613Z,16.33
2022-08-07T06:04:29.769Z,16.45
2022-08-07T06:07:03.441Z,16.56
2022-08-07T06:09:44.969Z,16.60
2022-08-07T06:12:18.637Z,16.79
2022-08-07T06:14:49.539Z,16.80
2022-08-07T06:17:18.224Z,16.89
2022-08-07T06:19:57.557Z,16.94
2022-08-07T06:22:36.883Z,16.99
2022-08-07T06:25:06.573Z,17.15
2022-08-07T06:27:44.086Z,17.21
2022-08-07T06:30:32.310Z,17.29
2022-08-07T06:33:03.825Z,17.47
2022-08-07T06:35:45.534Z,17.51
2022-08-07T06:38:20.596Z,17.53
2022-08-07T06:40:51.307Z,17.59
2022-08-07T06:43:22.275Z,17.63
2022-08-07T06:45:49.588Z,17.93
2022-08-07T06:48:16.267Z,18.05
2022-08-07T06:50:53.085Z,18.13
2022-08-07T06:55:28.486Z,18.25
2022-08-07T06:56:15.312Z,18.27
2022-08-07T07:00:13.311Z,18.44
2022-08-07T07:01:44.149Z,18.51
2022-08-07T07:04:28.221Z,18.66
2022-08-07T07:07:02.040Z,18.82
2022-08-07T07:09:31.693Z,18.95
2022-08-07T07:12:19.607Z,19.27
2022-08-07T07:14:50.180Z,19.78
2022-08-07T07:17:38.761Z,20.34
2022-08-07T07:20:29.528Z,21.05
2022-08-07T07:24:10.937Z,21.75
2022-08-07T07:26:34.938Z,22.65
2022-08-07T07:29:22.708Z,23.26
2022-08-07T07:31:33.219Z,23.74
2022-08-07T07:34:16.774Z,23.53
2022-08-07T07:36:47.927Z,23.90
2022-08-07T07:39:22.687Z,24.28
2022-08-07T07:42:12.945Z,23.95
2022-08-07T07:44:43.416Z,24.03
2022-08-07T07:47:16.101Z,24.60
2022-08-07T07:50:32.728Z,25.09
2022-08-07T07:52:40.993Z,24.72
2022-08-07T07:55:09.501Z,25.43
2022-08-07T07:57:52.330Z,26.29
2022-08-07T08:00:29.013Z,26.92
2022-08-07T08:03:05.662Z,27.06
2022-08-07T08:05:54.131Z,27.06
2022-08-07T08:08:34.720Z,27.37
2022-08-07T08:11:09.327Z,27.52
2022-08-07T08:13:54.227Z,27.65
2022-08-07T08:16:35.424Z,27.76
2022-08-07T08:19:17.386Z,27.33
2022-08-07T08:22:10.883Z,26.60
2022-08-07T08:25:18.872Z,27.05
2022-08-07T08:27:56.288Z,26.48
2022-08-07T08:30:29.551Z,26.69
2022-08-07T08:33:01.435Z,26.25
2022-08-07T08:35:39.385Z,26.36
2022-08-07T08:38:17.001Z,26.58
2022-08-07T08:40:53.644Z,26.47
2022-08-07T08:43:42.431Z,26.23
2022-08-07T08:46:17.269Z,26.69
2022-08-07T08:49:09.841Z,27.55
2022-08-07T08:52:12.759Z,28.43
2022-08-07T08:54:41.433Z,28.10
2022-08-07T08:57:21.436Z,27.91
2022-08-07T09:00:01.596Z,28.41
2022-08-07T09:02:52.619Z,28.47
2022-08-07T09:05:40.743Z,28.63
2022-08-07T09:08:32.247Z,28.52
2022-08-07T09:11:14.045Z,28.61
2022-08-07T09:13:56.871Z,28.82
2022-08-07T09:16:42.646Z,28.60
2022-08-07T09:19:52.157Z,28.79
2022-08-07T09:24:31.903Z,28.63
2022-08-07T09:25:27.165Z,28.21
2022-08-07T09:28:04.922Z,27.97
2022-08-07T09:31:13.419Z,28.45
2022-08-07T09:34:16.568Z,28.34
2022-08-07T09:37:01.777Z,28.41
2022-08-07T09:39:54.506Z,28.82
2022-08-07T09:42:41.101Z,28.72
2022-08-07T09:47:25.040Z,27.65
2022-08-07T09:50:02.271Z,27.82
2022-08-07T09:52:33.490Z,28.18
2022-08-07T09:55:29.002Z,29.13
2022-08-07T09:58:32.608Z,28.98
2022-08-07T10:01:51.081Z,29.28
2022-08-07T10:04:52.836Z,29.20
2022-08-07T10:08:08.149Z,29.21
2022-08-07T10:11:59.801Z,28.81
2022-08-07T10:14:01.766Z,29.66
2022-08-07T10:16:29.378Z,29.28
2022-08-07T10:19:11.257Z,29.62
2022-08-07T10:22:15.135Z,28.92
2022-08-07T10:24:49.141Z,28.35
2022-08-07T10:27:15.885Z,28.73
2022-08-07T10:30:03.641Z,28.62
2022-08-07T10:33:01.757Z,28.82
2022-08-07T10:35:55.567Z,28.73
2022-08-07T10:38:49.291Z,28.95
2022-08-07T10:41:51.486Z,29.24
2022-08-07T10:44:28.805Z,29.60
2022-08-07T10:47:31.345Z,29.50
2022-08-07T10:50:16.933Z,29.76
2022-08-07T10:53:24.971Z,29.74
2022-08-07T10:56:31.172Z,29.16
2022-08-07T10:59:13.605Z,28.99
2022-08-07T11:02:11.819Z,28.44
2022-08-07T11:04:51.323Z,28.35
2022-08-07T11:07:58.733Z,28.62
2022-08-07T11:10:29.861Z,28.38
2022-08-07T11:14:57.260Z,28.25
2022-08-07T11:16:34.197Z,28.49
2022-08-07T11:19:12.007Z,28.66
2022-08-07T11:21:50.261Z,28.75
2022-08-07T11:24:33.495Z,28.34
2022-08-07T11:27:13.380Z,28.16
2022-08-07T11:30:10.096Z,28.42
2022-08-07T11:32:45.836Z,28.05
2022-08-07T11:36:04.664Z,27.98
2022-08-07T11:38:58.025Z,27.96
2022-08-07T11:42:00.299Z,28.11
2022-08-07T11:44:39.609Z,28.11
2022-08-07T11:47:26.065Z,27.84
2022-08-07T11:50:32.692Z,27.89
2022-08-07T11:53:09.872Z,28.16
2022-08-07T11:56:25.051Z,27.90
2022-08-07T11:58:56.291Z,28.00
2022-08-07T12:02:17.765Z,28.08
2022-08-07T12:05:28.569Z,28.13
2022-08-07T12:08:38.753Z,28.39
2022-08-07T12:11:32.493Z,28.07
2022-08-07T12:14:11.109Z,28.20
2022-08-07T12:16:51.224Z,28.17
2022-08-07T12:20:03.279Z,28.23
2022-08-07T12:23:09.103Z,28.16
2022-08-07T12:26:22.096Z,28.30
2022-08-07T12:29:08.883Z,28.42
2022-08-07T12:32:04.365Z,27.89
2022-08-07T12:34:38.809Z,28.16
2022-08-07T12:37:16.989Z,28.29
2022-08-07T12:39:52.459Z,28.29
2022-08-07T12:42:27.905Z,28.22
2022-08-07T12:44:58.246Z,28.34
2022-08-07T12:47:30.717Z,28.26
2022-08-07T12:50:38.568Z,28.24
2022-08-07T12:53:19.118Z,28.25
2022-08-07T12:56:10.054Z,28.18
2022-08-07T12:58:40.085Z,28.50
2022-08-07T13:01:19.168Z,28.45
2022-08-07T13:04:04.589Z,28.36
2022-08-07T13:07:01.293Z,28.46
2022-08-07T13:10:29.361Z,28.45
2022-08-07T13:13:02.679Z,28.55
2022-08-07T13:15:43.859Z,28.51
2022-08-07T13:18:26.567Z,28.49
2022-08-07T13:21:35.014Z,28.42
2022-08-07T13:24:11.370Z,28.53
2022-08-07T13:26:55.579Z,28.56
2022-08-07T13:29:46.969Z,28.53
2022-08-07T13:32:32.850Z,28.46
2022-08-07T13:35:08.829Z,28.26
2022-08-07T13:38:01.326Z,28.21
2022-08-07T13:40:42.707Z,28.12
2022-08-07T13:43:13.321Z,28.16
2022-08-07T13:46:12.490Z,28.13
2022-08-07T13:48:34.722Z,28.24
2022-08-07T13:51:28.210Z,28.15
2022-08-07T13:54:03.577Z,28.13
2022-08-07T13:56:35.400Z,28.18
2022-08-07T13:59:18.307Z,28.33
2022-08-07T14:02:03.899Z,28.14
2022-08-07T14:04:35.796Z,28.36
2022-08-07T14:07:09.493Z,28.55
2022-08-07T14:10:15.656Z,28.51
2022-08-07T14:12:36.203Z,28.41
2022-08-07T14:15:18.594Z,28.36
2022-08-07T14:18:23.942Z,28.40
2022-08-07T14:20:41.161Z,28.49
2022-08-07T14:24:00.261Z,28.67
2022-08-07T14:26:27.993Z,28.84
2022-08-07T14:29:02.956Z,28.79
2022-08-07T14:31:42.230Z,28.67
2022-08-07T14:34:19.921Z,28.65
2022-08-07T14:36:56.374Z,28.63
2022-08-07T14:42:18.177Z,28.62
2022-08-07T14:44:54.001Z,28.72
2022-08-07T14:47:32.645Z,28.75
2022-08-07T14:50:06.659Z,28.71
2022-08-07T14:52:39.255Z,28.62
2022-08-07T14:55:07.066Z,28.66
2022-08-07T15:00:30.476Z,28.72
2022-08-07T15:02:59.409Z,28.59
2022-08-07T15:05:30.229Z,28.47
2022-08-07T15:07:59.007Z,28.55
2022-08-07T15:10:29.856Z,28.42
2022-08-07T15:13:01.259Z,28.46
2022-08-07T15:15:52.790Z,28.55
2022-08-07T15:18:33.618Z,28.60
2022-08-07T15:21:08.240Z,28.46
2022-08-07T15:25:15.379Z,28.42
2022-08-07T15:26:55.938Z,28.43
2022-08-07T15:30:08.905Z,28.41
2022-08-07T15:32:39.047Z,28.52
2022-08-07T15:35:06.599Z,28.52
2022-08-07T15:38:18.212Z,28.77
2022-08-07T15:40:34.608Z,28.99
2022-08-07T15:43:53.196Z,29.04
2022-08-07T15:46:31.674Z,28.96
2022-08-07T15:54:39.437Z,28.96
2022-08-07T15:57:10.698Z,29.10
2022-08-07T15:59:56.631Z,29.16
2022-08-07T16:02:31.629Z,29.17
2022-08-07T16:05:01.768Z,29.13
2022-08-07T16:08:32.271Z,29.00
2022-08-07T16:10:27.811Z,29.20
2022-08-07T16:13:57.770Z,29.18
2022-08-07T16:16:47.585Z,29.09
2022-08-07T16:19:43.138Z,28.98
2022-08-07T16:22:36.434Z,28.90
2022-08-07T16:25:55.058Z,28.85
2022-08-07T16:30:08.533Z,29.03
2022-08-07T16:31:50.773Z,28.93
2022-08-07T16:34:34.080Z,29.03
2022-08-07T16:38:03.393Z,29.14
2022-08-07T16:40:31.961Z,29.15
2022-08-07T16:43:07.568Z,29.15
2022-08-07T16:46:47.319Z,28.92
2022-08-07T16:49:10.640Z,28.55
2022-08-07T16:52:35.450Z,28.38
2022-08-07T16:55:08.117Z,28.25
2022-08-07T16:58:02.530Z,28.14
2022-08-07T17:00:55.438Z,28.20
2022-08-07T17:03:59.668Z,28.12
2022-08-07T17:06:44.260Z,28.08
2022-08-07T17:10:06.939Z,28.08
2022-08-07T17:12:44.729Z,28.07
2022-08-07T17:15:15.683Z,27.95
2022-08-07T17:17:48.052Z,27.92
2022-08-07T17:20:31.107Z,27.80
2022-08-07T17:22:57.524Z,27.68
2022-08-07T17:25:51.304Z,27.72
2022-08-07T17:28:38.262Z,27.68
2022-08-07T17:31:20.780Z,27.75
2022-08-07T17:34:34.046Z,27.78
2022-08-07T17:37:09.557Z,27.71
2022-08-07T17:40:14.771Z,27.71
2022-08-07T17:43:02.197Z,27.65
2022-08-07T17:45:50.408Z,27.61
2022-08-07T17:48:30.639Z,27.57
2022-08-07T17:52:00.725Z,27.51
2022-08-07T17:54:40.254Z,27.53
2022-08-07T17:57:58.998Z,27.44
2022-08-07T18:00:34.509Z,27.42
2022-08-07T18:03:28.778Z,27.40
2022-08-07T18:06:36.656Z,27.48
2022-08-07T18:09:05.671Z,27.44
2022-08-07T18:12:06.743Z,27.38
2022-08-07T18:14:50.465Z,27.37
2022-08-07T18:18:44.995Z,27.39
2022-08-07T18:21:11.783Z,27.31
2022-08-07T18:23:42.634Z,27.31
2022-08-07T18:26:05.337Z,27.26
2022-08-07T18:29:02.202Z,27.25
2022-08-07T18:31:59.455Z,27.22
2022-08-07T18:35:00.709Z,27.13
2022-08-07T18:38:55.184Z,27.05
2022-08-07T18:40:49.266Z,26.85
2022-08-07T18:43:49.296Z,26.68
2022-08-07T18:46:28.360Z,26.62
2022-08-07T18:50:19.275Z,26.61
2022-08-07T18:52:53.681Z,26.44
2022-08-07T18:55:42.946Z,26.37
2022-08-07T18:58:25.390Z,26.21
2022-08-07T19:01:11.958Z,26.11
2022-08-07T19:04:03.896Z,25.95
2022-08-07T19:06:49.696Z,25.91
2022-08-07T19:09:55.426Z,25.97
2022-08-07T19:12:29.892Z,25.89
2022-08-07T19:16:04.528Z,25.88
2022-08-07T19:18:47.876Z,25.80
2022-08-07T19:21:47.802Z,25.67
2022-08-07T19:24:30.959Z,25.59
2022-08-07T19:28:57.463Z,25.42
2022-08-07T19:31:05.487Z,25.40
2022-08-07T19:32:50.368Z,25.33
2022-08-07T19:35:25.672Z,25.24
2022-08-07T19:37:58.589Z,25.11
2022-08-07T19:40:31.696Z,25.02
2022-08-07T19:43:08.683Z,24.91
2022-08-07T19:46:05.426Z,24.82
2022-08-07T19:48:53.514Z,24.85
2022-08-07T19:51:24.380Z,24.81
2022-08-07T19:54:34.344Z,24.61
2022-08-07T19:58:02.984Z,24.52
2022-08-07T19:59:58.729Z,24.33
2022-08-07T20:02:39.206Z,24.30
2022-08-07T20:05:28.608Z,24.32
2022-08-07T20:08:27.382Z,24.26
2022-08-07T20:11:15.117Z,24.19
2022-08-07T20:14:20.867Z,24.19
2022-08-07T20:17:05.210Z,24.17
2022-08-07T20:20:08.400Z,24.04
2022-08-07T20:22:39.986Z,23.93
2022-08-07T20:27:58.306Z,23.85
2022-08-07T20:30:34.363Z,23.73
2022-08-07T20:33:03.860Z,23.67
2022-08-07T20:35:51.731Z,23.48
2022-08-07T20:38:22.080Z,23.48
2022-08-07T20:40:53.311Z,23.48
2022-08-07T20:43:25.583Z,23.44
2022-08-07T20:46:28.721Z,23.44
2022-08-07T20:48:58.155Z,23.35
2022-08-07T20:51:35.776Z,23.13
2022-08-07T20:54:08.597Z,22.97
2022-08-07T20:56:46.114Z,22.89
2022-08-07T20:59:27.186Z,22.81
2022-08-07T21:02:31.782Z,22.78
2022-08-07T21:05:00.637Z,22.70
2022-08-07T21:07:32.880Z,22.61
2022-08-07T21:10:02.105Z,22.53
2022-08-07T21:12:34.229Z,22.44
2022-08-07T21:15:07.243Z,22.31
2022-08-07T21:18:02.675Z,22.24
2022-08-07T21:20:30.193Z,22.15
2022-08-07T21:23:08.665Z,22.07
2022-08-07T21:25:56.309Z,21.98
2022-08-07T21:28:48.013Z,21.89
2022-08-07T21:32:10.795Z,21.82
2022-08-07T21:34:32.225Z,21.76
2022-08-07T21:37:04.068Z,21.68
2022-08-07T21:39:48.229Z,21.62
2022-08-07T21:42:42.352Z,21.56
2022-08-07T21:45:42.139Z,21.50
2022-08-07T21:48:29.012Z,21.44
2022-08-07T21:51:05.741Z,21.41
2022-08-07T21:53:46.606Z,21.36
2022-08-07T21:56:47.010Z,21.22
2022-08-07T21:59:31.019Z,21.21
2022-08-07T22:02:31.012Z,21.23
2022-08-07T22:05:00.544Z,21.35
2022-08-07T22:07:48.584Z,21.43
2022-08-07T22:10:21.569Z,21.44
2022-08-07T22:12:55.367Z,21.48
2022-08-07T22:16:41.560Z,21.49
2022-08-07T22:18:24.494Z,21.52
2022-08-07T22:21:11.565Z,21.59
2022-08-07T22:23:45.026Z,21.56
2022-08-07T22:26:13.669Z,21.32
2022-08-07T22:28:55.701Z,21.22
2022-08-07T22:31:55.889Z,21.23
2022-08-07T22:34:35.600Z,21.29
2022-08-07T22:38:03.646Z,21.33
2022-08-07T22:40:39.729Z,21.30
2022-08-07T22:43:10.760Z,21.24
2022-08-07T22:46:41.048Z,21.16
2022-08-07T22:49:07.679Z,21.13
2022-08-07T22:52:19.599Z,21.00
2022-08-07T22:55:23.029Z,20.69
2022-08-07T22:58:04.624Z,20.56
2022-08-07T23:01:10.939Z,20.59
2022-08-07T23:04:02.722Z,20.70
2022-08-07T23:07:00.316Z,20.73
2022-08-07T23:10:05.190Z,20.54
2022-08-07T23:12:42.692Z,20.40
2022-08-07T23:16:06.092Z,20.51
2022-08-07T23:18:32.334Z,20.40
2022-08-07T23:21:16.752Z,20.44
2022-08-07T23:24:11.614Z,20.54
2022-08-07T23:26:58.294Z,20.57
2022-08-07T23:29:43.414Z,20.49
2022-08-07T23:34:20.231Z,20.29
2022-08-07T23:35:27.096Z,20.05
2022-08-07T23:38:11.703Z,20.00
2022-08-07T23:41:20.992Z,19.87
2022-08-07T23:44:11.770Z,19.86
2022-08-07T23:46:47.962Z,19.89
2022-08-07T23:49:42.276Z,19.86
2022-08-07T23:53:05.615Z,19.78
2022-08-07T23:55:52.907Z,19.71
2022-08-07T23:58:50.788Z,19.64
